Terminal Aerodrome Forecast
Issued by NWS Amarillo, TX

Home | Current Version | Previous Version | Text Only | Print | Product List | Glossary On
Versions: 1 2 3 4 5 6 7 8 9 10 11 12 13 14 15 16 17 18 19 20 21 22 23
000
FTUS44 KAMA 281726
TAFAMA
TAF
KAMA 281726Z 2818/2918 17010KT P6SM VCSH SCT050 OVC150
     FM290300 14010KT P6SM SCT070 OVC200 PROB30 2903/2909 -TSRA
      BKN050CB=

USA.gov is the U.S. government's official web portal to all federal, state and local government web resources and services.